sensor_id;sensor_type;location;lat;lon;timestamp;temperature;humidity
24450;DHT22;13349;50.984;5.822;2023-12-29T00:01:52;10.90;1.00
24450;DHT22;13349;50.984;5.822;2023-12-29T00:04:20;10.90;1.00
24450;DHT22;13349;50.984;5.822;2023-12-29T00:06:47;10.80;1.00
24450;DHT22;13349;50.984;5.822;2023-12-29T00:09:14;10.90;1.00
24450;DHT22;13349;50.984;5.822;2023-12-29T00:11:42;10.90;1.00
24450;DHT22;13349;50.984;5.822;2023-12-29T00:14:09;10.80;1.00
24450;DHT22;13349;50.984;5.822;2023-12-29T00:16:36;10.80;1.00
24450;DHT22;13349;50.984;5.822;2023-12-29T00:19:03;10.80;5.30
24450;DHT22;13349;50.984;5.822;2023-12-29T00:21:30;10.80;36.20
24450;DHT22;13349;50.984;5.822;2023-12-29T00:23:57;10.80;14.30
24450;DHT22;13349;50.984;5.822;2023-12-29T00:26:24;10.80;41.70
24450;DHT22;13349;50.984;5.822;2023-12-29T00:28:53;10.70;99.90
24450;DHT22;13349;50.984;5.822;2023-12-29T00:31:20;10.70;99.90
24450;DHT22;13349;50.984;5.822;2023-12-29T00:33:48;10.80;99.90
24450;DHT22;13349;50.984;5.822;2023-12-29T00:36:17;10.70;99.90
24450;DHT22;13349;50.984;5.822;2023-12-29T00:38:45;10.70;99.90
24450;DHT22;13349;50.984;5.822;2023-12-29T00:41:12;10.80;99.90
24450;DHT22;13349;50.984;5.822;2023-12-29T00:43:39;10.70;99.90
24450;DHT22;13349;50.984;5.822;2023-12-29T00:46:07;10.70;99.90
24450;DHT22;13349;50.984;5.822;2023-12-29T00:48:35;10.70;99.90
24450;DHT22;13349;50.984;5.822;2023-12-29T00:51:02;10.70;99.90
24450;DHT22;13349;50.984;5.822;2023-12-29T00:53:29;10.70;99.90
24450;DHT22;13349;50.984;5.822;2023-12-29T00:55:57;10.70;99.90
24450;DHT22;13349;50.984;5.822;2023-12-29T00:58:24;10.70;1.00
24450;DHT22;13349;50.984;5.822;2023-12-29T01:00:51;10.70;1.00
24450;DHT22;13349;50.984;5.822;2023-12-29T01:03:19;10.70;1.00
24450;DHT22;13349;50.984;5.822;2023-12-29T01:05:46;10.70;1.00
24450;DHT22;13349;50.984;5.822;2023-12-29T01:08:13;10.70;1.00
24450;DHT22;13349;50.984;5.822;2023-12-29T01:10:40;10.60;1.00
24450;DHT22;13349;50.984;5.822;2023-12-29T01:13:07;10.60;1.00
24450;DHT22;13349;50.984;5.822;2023-12-29T01:15:34;10.70;1.00
24450;DHT22;13349;50.984;5.822;2023-12-29T01:18:01;10.70;1.00
24450;DHT22;13349;50.984;5.822;2023-12-29T01:20:30;10.60;1.00
24450;DHT22;13349;50.984;5.822;2023-12-29T01:22:57;10.60;1.00
24450;DHT22;13349;50.984;5.822;2023-12-29T01:25:24;10.60;1.00
24450;DHT22;13349;50.984;5.822;2023-12-29T01:27:51;10.60;1.00
24450;DHT22;13349;50.984;5.822;2023-12-29T01:30:17;10.60;1.00
24450;DHT22;13349;50.984;5.822;2023-12-29T01:32:44;10.60;1.00
24450;DHT22;13349;50.984;5.822;2023-12-29T01:35:11;10.60;1.00
24450;DHT22;13349;50.984;5.822;2023-12-29T01:37:40;10.70;1.00
24450;DHT22;13349;50.984;5.822;2023-12-29T01:40:07;10.70;1.00
24450;DHT22;13349;50.984;5.822;2023-12-29T01:42:34;10.60;99.90
24450;DHT22;13349;50.984;5.822;2023-12-29T01:45:01;10.40;99.90
24450;DHT22;13349;50.984;5.822;2023-12-29T01:47:28;10.40;1.00
24450;DHT22;13349;50.984;5.822;2023-12-29T01:49:55;10.40;1.00
24450;DHT22;13349;50.984;5.822;2023-12-29T01:52:22;10.20;1.00
24450;DHT22;13349;50.984;5.822;2023-12-29T01:54:51;10.10;1.00
24450;DHT22;13349;50.984;5.822;2023-12-29T01:57:18;9.90;1.00
24450;DHT22;13349;50.984;5.822;2023-12-29T01:59:46;10.10;1.00
24450;DHT22;13349;50.984;5.822;2023-12-29T02:02:14;9.90;99.90
24450;DHT22;13349;50.984;5.822;2023-12-29T02:04:42;9.80;27.40
24450;DHT22;13349;50.984;5.822;2023-12-29T02:07:09;9.90;1.00
24450;DHT22;13349;50.984;5.822;2023-12-29T02:09:36;9.80;1.00
24450;DHT22;13349;50.984;5.822;2023-12-29T02:12:05;9.90;1.00
24450;DHT22;13349;50.984;5.822;2023-12-29T02:14:31;10.10;1.00
24450;DHT22;13349;50.984;5.822;2023-12-29T02:17:01;10.00;1.00
24450;DHT22;13349;50.984;5.822;2023-12-29T02:19:36;10.00;1.00
24450;DHT22;13349;50.984;5.822;2023-12-29T02:22:04;10.20;1.00
24450;DHT22;13349;50.984;5.822;2023-12-29T02:24:31;10.20;1.00
24450;DHT22;13349;50.984;5.822;2023-12-29T02:27:02;10.20;1.00
24450;DHT22;13349;50.984;5.822;2023-12-29T02:29:30;10.10;24.30
24450;DHT22;13349;50.984;5.822;2023-12-29T02:31:59;10.10;95.10
24450;DHT22;13349;50.984;5.822;2023-12-29T02:34:26;10.30;93.80
24450;DHT22;13349;50.984;5.822;2023-12-29T02:36:54;10.40;1.00
24450;DHT22;13349;50.984;5.822;2023-12-29T02:39:22;10.40;1.00
24450;DHT22;13349;50.984;5.822;2023-12-29T02:41:49;10.50;99.90
24450;DHT22;13349;50.984;5.822;2023-12-29T02:44:18;10.50;61.40
24450;DHT22;13349;50.984;5.822;2023-12-29T02:46:45;10.60;1.00
24450;DHT22;13349;50.984;5.822;2023-12-29T02:49:12;10.60;64.90
24450;DHT22;13349;50.984;5.822;2023-12-29T02:51:39;10.60;1.00
24450;DHT22;13349;50.984;5.822;2023-12-29T02:54:06;10.60;99.90
24450;DHT22;13349;50.984;5.822;2023-12-29T02:56:33;10.60;1.00
24450;DHT22;13349;50.984;5.822;2023-12-29T02:59:00;10.70;1.00
24450;DHT22;13349;50.984;5.822;2023-12-29T03:01:30;10.70;1.00
24450;DHT22;13349;50.984;5.822;2023-12-29T03:03:56;10.70;99.90
24450;DHT22;13349;50.984;5.822;2023-12-29T03:06:23;10.80;1.00
24450;DHT22;13349;50.984;5.822;2023-12-29T03:08:51;10.70;1.00
24450;DHT22;13349;50.984;5.822;2023-12-29T03:11:18;10.70;1.00
24450;DHT22;13349;50.984;5.822;2023-12-29T03:13:45;10.80;99.90
24450;DHT22;13349;50.984;5.822;2023-12-29T03:16:12;10.70;99.90
24450;DHT22;13349;50.984;5.822;2023-12-29T03:18:41;10.70;61.30
24450;DHT22;13349;50.984;5.822;2023-12-29T03:21:08;10.70;1.00
24450;DHT22;13349;50.984;5.822;2023-12-29T03:23:35;10.80;1.00
24450;DHT22;13349;50.984;5.822;2023-12-29T03:26:01;10.70;1.00
24450;DHT22;13349;50.984;5.822;2023-12-29T03:28:29;10.70;1.00
24450;DHT22;13349;50.984;5.822;2023-12-29T03:30:56;10.70;1.00
24450;DHT22;13349;50.984;5.822;2023-12-29T03:33:23;10.60;1.00
24450;DHT22;13349;50.984;5.822;2023-12-29T03:35:51;10.70;99.90
24450;DHT22;13349;50.984;5.822;2023-12-29T03:38:18;10.70;99.90
24450;DHT22;13349;50.984;5.822;2023-12-29T03:40:45;10.70;99.90
24450;DHT22;13349;50.984;5.822;2023-12-29T03:43:12;10.70;99.90
24450;DHT22;13349;50.984;5.822;2023-12-29T03:45:39;10.70;99.90
24450;DHT22;13349;50.984;5.822;2023-12-29T03:48:06;10.70;99.90
24450;DHT22;13349;50.984;5.822;2023-12-29T03:50:34;10.60;99.90
24450;DHT22;13349;50.984;5.822;2023-12-29T03:53:02;10.60;99.90
24450;DHT22;13349;50.984;5.822;2023-12-29T03:55:29;10.60;99.90
24450;DHT22;13349;50.984;5.822;2023-12-29T03:57:56;10.60;99.90
24450;DHT22;13349;50.984;5.822;2023-12-29T04:00:23;10.70;99.90
24450;DHT22;13349;50.984;5.822;2023-12-29T04:02:50;10.70;99.90
24450;DHT22;13349;50.984;5.822;2023-12-29T04:05:18;10.70;99.90
24450;DHT22;13349;50.984;5.822;2023-12-29T04:07:45;10.70;99.90
24450;DHT22;13349;50.984;5.822;2023-12-29T04:10:13;10.70;99.90
24450;DHT22;13349;50.984;5.822;2023-12-29T04:12:40;10.70;99.90
24450;DHT22;13349;50.984;5.822;2023-12-29T04:15:07;10.70;99.90
24450;DHT22;13349;50.984;5.822;2023-12-29T04:17:34;10.70;99.90
24450;DHT22;13349;50.984;5.822;2023-12-29T04:20:01;10.70;99.90
24450;DHT22;13349;50.984;5.822;2023-12-29T04:22:31;10.70;23.40
24450;DHT22;13349;50.984;5.822;2023-12-29T04:24:59;10.60;1.00
24450;DHT22;13349;50.984;5.822;2023-12-29T04:27:27;10.60;1.00
24450;DHT22;13349;50.984;5.822;2023-12-29T04:29:54;10.60;1.00
24450;DHT22;13349;50.984;5.822;2023-12-29T04:32:21;10.60;4.90
24450;DHT22;13349;50.984;5.822;2023-12-29T04:34:48;10.50;87.40
24450;DHT22;13349;50.984;5.822;2023-12-29T04:37:15;10.50;99.90
24450;DHT22;13349;50.984;5.822;2023-12-29T04:39:42;10.60;93.80
24450;DHT22;13349;50.984;5.822;2023-12-29T04:42:08;10.60;99.90
24450;DHT22;13349;50.984;5.822;2023-12-29T04:44:37;10.50;99.90
24450;DHT22;13349;50.984;5.822;2023-12-29T04:47:04;10.50;99.90
24450;DHT22;13349;50.984;5.822;2023-12-29T04:49:31;10.50;99.90
24450;DHT22;13349;50.984;5.822;2023-12-29T04:51:57;10.50;99.90
24450;DHT22;13349;50.984;5.822;2023-12-29T04:54:24;10.50;99.90
24450;DHT22;13349;50.984;5.822;2023-12-29T04:56:51;10.50;99.90
24450;DHT22;13349;50.984;5.822;2023-12-29T04:59:18;10.50;99.90
24450;DHT22;13349;50.984;5.822;2023-12-29T05:01:46;10.50;99.90
24450;DHT22;13349;50.984;5.822;2023-12-29T05:04:13;10.50;99.90
24450;DHT22;13349;50.984;5.822;2023-12-29T05:06:42;10.50;99.90
24450;DHT22;13349;50.984;5.822;2023-12-29T05:09:09;10.50;99.90
24450;DHT22;13349;50.984;5.822;2023-12-29T05:11:36;10.50;99.90
24450;DHT22;13349;50.984;5.822;2023-12-29T05:14:03;10.50;1.00
24450;DHT22;13349;50.984;5.822;2023-12-29T05:16:30;10.60;1.00
24450;DHT22;13349;50.984;5.822;2023-12-29T05:18:58;10.60;1.00
24450;DHT22;13349;50.984;5.822;2023-12-29T05:21:25;10.60;1.00
24450;DHT22;13349;50.984;5.822;2023-12-29T05:23:52;10.50;1.00
24450;DHT22;13349;50.984;5.822;2023-12-29T05:26:19;10.60;1.00
24450;DHT22;13349;50.984;5.822;2023-12-29T05:28:46;10.50;1.00
24450;DHT22;13349;50.984;5.822;2023-12-29T05:31:13;10.50;1.00
24450;DHT22;13349;50.984;5.822;2023-12-29T05:33:40;10.60;1.00
24450;DHT22;13349;50.984;5.822;2023-12-29T05:36:08;10.50;99.90
24450;DHT22;13349;50.984;5.822;2023-12-29T05:38:36;10.50;1.00
24450;DHT22;13349;50.984;5.822;2023-12-29T05:41:03;10.40;1.00
24450;DHT22;13349;50.984;5.822;2023-12-29T05:43:30;10.40;1.00
24450;DHT22;13349;50.984;5.822;2023-12-29T05:45:57;10.50;1.00
24450;DHT22;13349;50.984;5.822;2023-12-29T05:48:24;10.40;1.00
24450;DHT22;13349;50.984;5.822;2023-12-29T05:50:51;10.50;1.00
24450;DHT22;13349;50.984;5.822;2023-12-29T05:53:20;10.60;1.00
24450;DHT22;13349;50.984;5.822;2023-12-29T05:55:47;10.70;1.00
24450;DHT22;13349;50.984;5.822;2023-12-29T05:58:14;10.60;1.00
24450;DHT22;13349;50.984;5.822;2023-12-29T06:00:42;10.60;1.00
24450;DHT22;13349;50.984;5.822;2023-12-29T06:03:10;10.70;99.90
24450;DHT22;13349;50.984;5.822;2023-12-29T06:05:40;10.70;99.90
24450;DHT22;13349;50.984;5.822;2023-12-29T06:08:07;10.60;1.00
24450;DHT22;13349;50.984;5.822;2023-12-29T06:10:36;10.60;99.90
24450;DHT22;13349;50.984;5.822;2023-12-29T06:13:03;10.60;99.90
24450;DHT22;13349;50.984;5.822;2023-12-29T06:15:30;10.60;99.90
24450;DHT22;13349;50.984;5.822;2023-12-29T06:17:57;10.70;1.00
24450;DHT22;13349;50.984;5.822;2023-12-29T06:20:25;10.70;1.00
24450;DHT22;13349;50.984;5.822;2023-12-29T06:22:52;10.70;1.00
24450;DHT22;13349;50.984;5.822;2023-12-29T06:25:19;10.60;1.00
24450;DHT22;13349;50.984;5.822;2023-12-29T06:27:47;10.60;1.00
24450;DHT22;13349;50.984;5.822;2023-12-29T06:30:14;10.70;1.00
24450;DHT22;13349;50.984;5.822;2023-12-29T06:32:41;10.70;1.00
24450;DHT22;13349;50.984;5.822;2023-12-29T06:35:09;10.70;1.00
24450;DHT22;13349;50.984;5.822;2023-12-29T06:37:36;10.70;1.00
24450;DHT22;13349;50.984;5.822;2023-12-29T06:40:04;10.70;1.00
24450;DHT22;13349;50.984;5.822;2023-12-29T06:42:32;10.70;1.00
24450;DHT22;13349;50.984;5.822;2023-12-29T06:45:00;10.70;1.00
24450;DHT22;13349;50.984;5.822;2023-12-29T06:47:27;10.80;1.00
24450;DHT22;13349;50.984;5.822;2023-12-29T06:49:54;10.80;1.00
24450;DHT22;13349;50.984;5.822;2023-12-29T06:52:22;10.80;1.00
24450;DHT22;13349;50.984;5.822;2023-12-29T06:54:49;10.80;1.00
24450;DHT22;13349;50.984;5.822;2023-12-29T06:57:16;10.70;1.00
24450;DHT22;13349;50.984;5.822;2023-12-29T06:59:43;10.70;1.00
24450;DHT22;13349;50.984;5.822;2023-12-29T07:02:12;10.60;1.00
24450;DHT22;13349;50.984;5.822;2023-12-29T07:04:41;10.60;99.90
24450;DHT22;13349;50.984;5.822;2023-12-29T07:07:08;10.50;99.90
24450;DHT22;13349;50.984;5.822;2023-12-29T07:09:37;10.30;1.00
24450;DHT22;13349;50.984;5.822;2023-12-29T07:12:04;10.10;1.00
24450;DHT22;13349;50.984;5.822;2023-12-29T07:14:31;9.90;1.00
24450;DHT22;13349;50.984;5.822;2023-12-29T07:16:58;9.70;57.30
24450;DHT22;13349;50.984;5.822;2023-12-29T07:19:27;9.60;99.90
24450;DHT22;13349;50.984;5.822;2023-12-29T07:22:01;9.50;99.90
24450;DHT22;13349;50.984;5.822;2023-12-29T07:24:28;9.40;99.90
24450;DHT22;13349;50.984;5.822;2023-12-29T07:26:55;9.30;99.90
24450;DHT22;13349;50.984;5.822;2023-12-29T07:29:22;9.30;99.90
24450;DHT22;13349;50.984;5.822;2023-12-29T07:31:49;9.20;99.90
24450;DHT22;13349;50.984;5.822;2023-12-29T07:34:16;9.20;99.90
24450;DHT22;13349;50.984;5.822;2023-12-29T07:36:45;9.20;99.90
24450;DHT22;13349;50.984;5.822;2023-12-29T07:39:12;9.20;99.90
24450;DHT22;13349;50.984;5.822;2023-12-29T07:41:39;9.20;99.90
24450;DHT22;13349;50.984;5.822;2023-12-29T07:44:07;9.10;99.90
24450;DHT22;13349;50.984;5.822;2023-12-29T07:46:34;9.10;99.90
24450;DHT22;13349;50.984;5.822;2023-12-29T07:49:01;9.10;99.90
24450;DHT22;13349;50.984;5.822;2023-12-29T07:51:29;9.10;99.90
24450;DHT22;13349;50.984;5.822;2023-12-29T07:53:57;9.00;99.90
24450;DHT22;13349;50.984;5.822;2023-12-29T07:56:24;9.00;99.90
24450;DHT22;13349;50.984;5.822;2023-12-29T07:58:51;9.00;99.90
24450;DHT22;13349;50.984;5.822;2023-12-29T08:01:18;9.00;99.90
24450;DHT22;13349;50.984;5.822;2023-12-29T08:03:45;8.90;99.90
24450;DHT22;13349;50.984;5.822;2023-12-29T08:06:12;8.90;99.90
24450;DHT22;13349;50.984;5.822;2023-12-29T08:08:40;9.00;99.90
24450;DHT22;13349;50.984;5.822;2023-12-29T08:11:13;9.00;99.90
24450;DHT22;13349;50.984;5.822;2023-12-29T08:13:42;9.00;99.90
24450;DHT22;13349;50.984;5.822;2023-12-29T08:16:10;9.00;99.90
24450;DHT22;13349;50.984;5.822;2023-12-29T08:18:37;9.00;99.90
24450;DHT22;13349;50.984;5.822;2023-12-29T08:21:04;9.00;99.90
24450;DHT22;13349;50.984;5.822;2023-12-29T08:23:31;9.00;99.90
24450;DHT22;13349;50.984;5.822;2023-12-29T08:25:58;9.00;99.90
24450;DHT22;13349;50.984;5.822;2023-12-29T08:28:27;9.10;99.90
24450;DHT22;13349;50.984;5.822;2023-12-29T08:30:54;9.20;99.90
24450;DHT22;13349;50.984;5.822;2023-12-29T08:33:22;9.20;99.90
24450;DHT22;13349;50.984;5.822;2023-12-29T08:35:49;9.20;99.90
24450;DHT22;13349;50.984;5.822;2023-12-29T08:38:16;9.20;99.90
24450;DHT22;13349;50.984;5.822;2023-12-29T08:40:43;9.20;99.90
24450;DHT22;13349;50.984;5.822;2023-12-29T08:43:10;9.20;99.90
24450;DHT22;13349;50.984;5.822;2023-12-29T08:45:38;9.30;99.90
24450;DHT22;13349;50.984;5.822;2023-12-29T08:48:07;9.30;99.90
24450;DHT22;13349;50.984;5.822;2023-12-29T08:50:34;9.30;99.90
24450;DHT22;13349;50.984;5.822;2023-12-29T08:53:01;9.40;99.90
24450;DHT22;13349;50.984;5.822;2023-12-29T08:55:28;9.40;99.90
24450;DHT22;13349;50.984;5.822;2023-12-29T08:57:54;9.40;99.90
24450;DHT22;13349;50.984;5.822;2023-12-29T09:00:21;9.50;99.90
24450;DHT22;13349;50.984;5.822;2023-12-29T09:02:50;9.50;99.90
24450;DHT22;13349;50.984;5.822;2023-12-29T09:05:17;9.50;99.90
24450;DHT22;13349;50.984;5.822;2023-12-29T09:07:44;9.40;99.90
24450;DHT22;13349;50.984;5.822;2023-12-29T09:10:11;9.40;99.90
24450;DHT22;13349;50.984;5.822;2023-12-29T09:12:38;9.50;99.90
24450;DHT22;13349;50.984;5.822;2023-12-29T09:15:05;9.50;99.90
24450;DHT22;13349;50.984;5.822;2023-12-29T09:17:32;9.60;99.90
24450;DHT22;13349;50.984;5.822;2023-12-29T09:20:00;9.60;99.90
24450;DHT22;13349;50.984;5.822;2023-12-29T09:22:27;9.60;99.90
24450;DHT22;13349;50.984;5.822;2023-12-29T09:24:54;9.70;99.90
24450;DHT22;13349;50.984;5.822;2023-12-29T09:27:21;9.70;99.90
24450;DHT22;13349;50.984;5.822;2023-12-29T09:29:49;9.80;99.90
24450;DHT22;13349;50.984;5.822;2023-12-29T09:32:16;9.80;99.90
24450;DHT22;13349;50.984;5.822;2023-12-29T09:34:43;9.80;99.90
24450;DHT22;13349;50.984;5.822;2023-12-29T09:37:11;9.80;99.90
24450;DHT22;13349;50.984;5.822;2023-12-29T09:39:39;9.80;99.90
24450;DHT22;13349;50.984;5.822;2023-12-29T09:42:06;9.80;99.90
24450;DHT22;13349;50.984;5.822;2023-12-29T09:44:35;9.90;99.90
24450;DHT22;13349;50.984;5.822;2023-12-29T09:47:03;10.00;99.90
24450;DHT22;13349;50.984;5.822;2023-12-29T09:49:30;10.10;99.90
24450;DHT22;13349;50.984;5.822;2023-12-29T09:52:00;10.10;99.90
24450;DHT22;13349;50.984;5.822;2023-12-29T09:54:30;10.10;99.90
24450;DHT22;13349;50.984;5.822;2023-12-29T09:56:58;10.10;99.90
24450;DHT22;13349;50.984;5.822;2023-12-29T09:59:26;10.10;99.90
24450;DHT22;13349;50.984;5.822;2023-12-29T10:01:53;10.00;99.90
24450;DHT22;13349;50.984;5.822;2023-12-29T10:04:20;10.00;99.90
24450;DHT22;13349;50.984;5.822;2023-12-29T10:06:47;10.00;99.90
24450;DHT22;13349;50.984;5.822;2023-12-29T10:09:15;9.90;99.90
24450;DHT22;13349;50.984;5.822;2023-12-29T10:11:45;9.90;99.90
24450;DHT22;13349;50.984;5.822;2023-12-29T10:14:17;9.90;99.90
24450;DHT22;13349;50.984;5.822;2023-12-29T10:16:45;9.90;99.90
24450;DHT22;13349;50.984;5.822;2023-12-29T10:19:18;9.90;99.90
24450;DHT22;13349;50.984;5.822;2023-12-29T10:21:51;9.90;99.90
24450;DHT22;13349;50.984;5.822;2023-12-29T10:24:19;10.00;99.90
24450;DHT22;13349;50.984;5.822;2023-12-29T10:26:49;9.90;99.90
24450;DHT22;13349;50.984;5.822;2023-12-29T10:29:18;9.90;99.90
24450;DHT22;13349;50.984;5.822;2023-12-29T10:31:46;10.00;99.90
24450;DHT22;13349;50.984;5.822;2023-12-29T10:34:19;9.90;99.90
24450;DHT22;13349;50.984;5.822;2023-12-29T10:36:53;9.90;99.90
24450;DHT22;13349;50.984;5.822;2023-12-29T10:39:21;9.90;99.90
24450;DHT22;13349;50.984;5.822;2023-12-29T10:41:49;10.10;99.90
24450;DHT22;13349;50.984;5.822;2023-12-29T10:44:16;10.20;99.90
24450;DHT22;13349;50.984;5.822;2023-12-29T10:46:43;10.30;99.90
24450;DHT22;13349;50.984;5.822;2023-12-29T10:49:10;10.40;99.90
24450;DHT22;13349;50.984;5.822;2023-12-29T10:51:37;10.40;99.90
24450;DHT22;13349;50.984;5.822;2023-12-29T10:54:04;10.60;99.90
24450;DHT22;13349;50.984;5.822;2023-12-29T10:56:31;10.60;99.90
24450;DHT22;13349;50.984;5.822;2023-12-29T10:59:01;10.60;99.90
24450;DHT22;13349;50.984;5.822;2023-12-29T11:01:28;10.60;99.90
24450;DHT22;13349;50.984;5.822;2023-12-29T11:03:59;10.60;99.90
24450;DHT22;13349;50.984;5.822;2023-12-29T11:06:26;10.60;99.90
24450;DHT22;13349;50.984;5.822;2023-12-29T11:08:53;10.60;99.90
24450;DHT22;13349;50.984;5.822;2023-12-29T11:11:20;10.60;99.90
24450;DHT22;13349;50.984;5.822;2023-12-29T11:13:47;10.50;99.90
24450;DHT22;13349;50.984;5.822;2023-12-29T11:16:16;10.50;99.90
24450;DHT22;13349;50.984;5.822;2023-12-29T11:18:47;10.30;99.90
24450;DHT22;13349;50.984;5.822;2023-12-29T11:21:14;10.20;99.90
24450;DHT22;13349;50.984;5.822;2023-12-29T11:23:42;10.20;99.90
24450;DHT22;13349;50.984;5.822;2023-12-29T11:26:09;10.20;99.90
24450;DHT22;13349;50.984;5.822;2023-12-29T11:28:37;10.30;99.90
24450;DHT22;13349;50.984;5.822;2023-12-29T11:31:04;10.40;99.90
24450;DHT22;13349;50.984;5.822;2023-12-29T11:33:34;10.40;99.90
24450;DHT22;13349;50.984;5.822;2023-12-29T11:36:05;10.50;99.90
24450;DHT22;13349;50.984;5.822;2023-12-29T11:38:41;10.50;99.90
24450;DHT22;13349;50.984;5.822;2023-12-29T11:41:10;10.30;99.90
24450;DHT22;13349;50.984;5.822;2023-12-29T11:43:40;10.30;99.90
24450;DHT22;13349;50.984;5.822;2023-12-29T11:46:08;10.40;99.90
24450;DHT22;13349;50.984;5.822;2023-12-29T11:48:56;10.40;99.90
24450;DHT22;13349;50.984;5.822;2023-12-29T11:51:30;10.30;99.90
24450;DHT22;13349;50.984;5.822;2023-12-29T11:53:57;10.10;99.90
24450;DHT22;13349;50.984;5.822;2023-12-29T11:56:24;10.00;99.90
24450;DHT22;13349;50.984;5.822;2023-12-29T11:58:57;10.00;99.90
24450;DHT22;13349;50.984;5.822;2023-12-29T12:01:33;9.90;99.90
24450;DHT22;13349;50.984;5.822;2023-12-29T12:04:02;10.00;99.90
24450;DHT22;13349;50.984;5.822;2023-12-29T12:06:38;9.90;99.90
24450;DHT22;13349;50.984;5.822;2023-12-29T12:09:21;10.00;99.90
24450;DHT22;13349;50.984;5.822;2023-12-29T12:11:48;10.00;99.90
24450;DHT22;13349;50.984;5.822;2023-12-29T12:17:01;10.10;99.90
24450;DHT22;13349;50.984;5.822;2023-12-29T12:19:29;10.20;99.90
24450;DHT22;13349;50.984;5.822;2023-12-29T12:22:00;10.30;99.90
24450;DHT22;13349;50.984;5.822;2023-12-29T12:24:28;10.40;99.90
24450;DHT22;13349;50.984;5.822;2023-12-29T12:26:55;10.40;99.90
24450;DHT22;13349;50.984;5.822;2023-12-29T12:29:22;10.50;99.90
24450;DHT22;13349;50.984;5.822;2023-12-29T12:31:52;10.60;99.90
24450;DHT22;13349;50.984;5.822;2023-12-29T12:34:18;10.60;99.90
24450;DHT22;13349;50.984;5.822;2023-12-29T12:36:49;10.50;99.90
24450;DHT22;13349;50.984;5.822;2023-12-29T12:39:17;10.40;99.90
24450;DHT22;13349;50.984;5.822;2023-12-29T12:41:44;10.40;99.90
24450;DHT22;13349;50.984;5.822;2023-12-29T12:44:12;10.40;99.90
24450;DHT22;13349;50.984;5.822;2023-12-29T12:46:40;10.40;99.90
24450;DHT22;13349;50.984;5.822;2023-12-29T12:49:08;10.50;99.90
24450;DHT22;13349;50.984;5.822;2023-12-29T12:51:35;10.60;99.90
24450;DHT22;13349;50.984;5.822;2023-12-29T12:54:04;10.70;99.90
24450;DHT22;13349;50.984;5.822;2023-12-29T12:56:31;10.80;99.90
24450;DHT22;13349;50.984;5.822;2023-12-29T12:58:58;10.80;99.90
24450;DHT22;13349;50.984;5.822;2023-12-29T13:01:25;10.80;99.90
24450;DHT22;13349;50.984;5.822;2023-12-29T13:03:52;10.70;99.90
24450;DHT22;13349;50.984;5.822;2023-12-29T13:06:20;10.70;99.90
24450;DHT22;13349;50.984;5.822;2023-12-29T13:08:48;10.80;99.90
24450;DHT22;13349;50.984;5.822;2023-12-29T13:11:20;10.80;99.90
24450;DHT22;13349;50.984;5.822;2023-12-29T13:13:51;10.70;99.90
24450;DHT22;13349;50.984;5.822;2023-12-29T13:16:31;10.60;99.90
24450;DHT22;13349;50.984;5.822;2023-12-29T13:21:40;10.50;99.90
24450;DHT22;13349;50.984;5.822;2023-12-29T13:24:07;10.40;99.90
24450;DHT22;13349;50.984;5.822;2023-12-29T13:26:35;10.40;99.90
24450;DHT22;13349;50.984;5.822;2023-12-29T13:29:03;10.20;99.90
24450;DHT22;13349;50.984;5.822;2023-12-29T13:31:30;10.10;99.90
24450;DHT22;13349;50.984;5.822;2023-12-29T13:33:59;9.90;99.90
24450;DHT22;13349;50.984;5.822;2023-12-29T13:36:29;9.90;99.90
24450;DHT22;13349;50.984;5.822;2023-12-29T13:39:02;9.80;99.90
24450;DHT22;13349;50.984;5.822;2023-12-29T13:41:33;9.80;99.90
24450;DHT22;13349;50.984;5.822;2023-12-29T13:44:02;9.80;99.90
24450;DHT22;13349;50.984;5.822;2023-12-29T13:46:29;9.70;99.90
24450;DHT22;13349;50.984;5.822;2023-12-29T13:48:56;9.70;99.90
24450;DHT22;13349;50.984;5.822;2023-12-29T13:51:24;9.70;99.90
24450;DHT22;13349;50.984;5.822;2023-12-29T13:53:57;9.80;99.90
24450;DHT22;13349;50.984;5.822;2023-12-29T13:56:24;9.90;99.90
24450;DHT22;13349;50.984;5.822;2023-12-29T13:58:51;9.90;99.90
24450;DHT22;13349;50.984;5.822;2023-12-29T14:01:20;9.90;99.90
24450;DHT22;13349;50.984;5.822;2023-12-29T14:03:50;9.90;99.90
24450;DHT22;13349;50.984;5.822;2023-12-29T14:06:20;10.00;99.90
24450;DHT22;13349;50.984;5.822;2023-12-29T14:08:47;9.90;99.90
24450;DHT22;13349;50.984;5.822;2023-12-29T14:11:14;9.90;99.90
24450;DHT22;13349;50.984;5.822;2023-12-29T14:13:41;10.00;99.90
24450;DHT22;13349;50.984;5.822;2023-12-29T14:16:07;10.00;99.90
24450;DHT22;13349;50.984;5.822;2023-12-29T14:18:41;10.10;99.90
24450;DHT22;13349;50.984;5.822;2023-12-29T14:21:26;10.10;99.90
24450;DHT22;13349;50.984;5.822;2023-12-29T14:23:57;10.10;99.90
24450;DHT22;13349;50.984;5.822;2023-12-29T14:26:25;10.10;99.90
24450;DHT22;13349;50.984;5.822;2023-12-29T14:28:59;10.20;99.90
24450;DHT22;13349;50.984;5.822;2023-12-29T14:31:26;10.20;99.90
24450;DHT22;13349;50.984;5.822;2023-12-29T14:33:55;10.30;99.90
24450;DHT22;13349;50.984;5.822;2023-12-29T14:36:22;10.30;99.90
24450;DHT22;13349;50.984;5.822;2023-12-29T14:38:49;10.30;99.90
24450;DHT22;13349;50.984;5.822;2023-12-29T14:41:16;10.30;99.90
24450;DHT22;13349;50.984;5.822;2023-12-29T14:43:43;10.30;99.90
24450;DHT22;13349;50.984;5.822;2023-12-29T14:46:10;10.20;99.90
24450;DHT22;13349;50.984;5.822;2023-12-29T14:48:37;10.10;99.90
24450;DHT22;13349;50.984;5.822;2023-12-29T14:51:05;10.10;99.90
24450;DHT22;13349;50.984;5.822;2023-12-29T14:53:32;10.10;99.90
24450;DHT22;13349;50.984;5.822;2023-12-29T14:56:00;10.00;99.90
24450;DHT22;13349;50.984;5.822;2023-12-29T14:58:27;9.90;99.90
24450;DHT22;13349;50.984;5.822;2023-12-29T15:00:54;9.90;99.90
24450;DHT22;13349;50.984;5.822;2023-12-29T15:03:21;9.80;99.90
24450;DHT22;13349;50.984;5.822;2023-12-29T15:05:49;9.80;99.90
24450;DHT22;13349;50.984;5.822;2023-12-29T15:08:17;9.80;99.90
24450;DHT22;13349;50.984;5.822;2023-12-29T15:10:45;9.80;99.90
24450;DHT22;13349;50.984;5.822;2023-12-29T15:13:12;9.80;99.90
24450;DHT22;13349;50.984;5.822;2023-12-29T15:15:39;9.80;99.90
24450;DHT22;13349;50.984;5.822;2023-12-29T15:18:06;9.80;99.90
24450;DHT22;13349;50.984;5.822;2023-12-29T15:20:33;9.90;99.90
24450;DHT22;13349;50.984;5.822;2023-12-29T15:23:00;9.90;99.90
24450;DHT22;13349;50.984;5.822;2023-12-29T15:25:29;9.90;99.90
24450;DHT22;13349;50.984;5.822;2023-12-29T15:27:56;9.90;99.90
24450;DHT22;13349;50.984;5.822;2023-12-29T15:30:23;9.80;99.90
24450;DHT22;13349;50.984;5.822;2023-12-29T15:32:50;9.80;99.90
24450;DHT22;13349;50.984;5.822;2023-12-29T15:35:17;9.70;99.90
24450;DHT22;13349;50.984;5.822;2023-12-29T15:37:44;9.70;99.90
24450;DHT22;13349;50.984;5.822;2023-12-29T15:40:11;9.70;99.90
24450;DHT22;13349;50.984;5.822;2023-12-29T15:42:39;9.80;99.90
24450;DHT22;13349;50.984;5.822;2023-12-29T15:45:06;9.90;99.90
24450;DHT22;13349;50.984;5.822;2023-12-29T15:47:33;10.00;99.90
24450;DHT22;13349;50.984;5.822;2023-12-29T15:50:00;9.90;99.90